createdAt,value
2022-12-23T00:03:39.621Z,5.90
2022-12-23T00:18:43.053Z,6.00
2022-12-23T00:33:47.133Z,6.10
2022-12-23T00:49:07.509Z,6.11
2022-12-23T01:04:32.168Z,6.14
2022-12-23T01:19:34.917Z,6.20
2022-12-23T01:34:37.746Z,6.28
2022-12-23T01:49:41.269Z,6.36
2022-12-23T02:04:43.848Z,6.39
2022-12-23T02:19:51.689Z,6.35
2022-12-23T02:35:01.092Z,6.32
2022-12-23T02:50:26.547Z,6.24
2022-12-23T03:05:34.068Z,6.18
2022-12-23T03:21:05.150Z,6.18
2022-12-23T03:36:15.949Z,6.20
2022-12-23T03:51:22.898Z,6.12
2022-12-23T04:06:31.345Z,6.11
2022-12-23T04:21:33.287Z,6.10
2022-12-23T04:36:35.313Z,5.94
2022-12-23T04:51:37.291Z,5.42
2022-12-23T05:06:39.307Z,4.84
2022-12-23T05:21:41.231Z,4.36
2022-12-23T05:36:43.149Z,4.11
2022-12-23T05:51:45.070Z,4.28
2022-12-23T06:06:47.058Z,4.48
2022-12-23T06:21:48.979Z,4.73
2022-12-23T06:36:50.987Z,4.53
2022-12-23T06:51:52.929Z,4.67
2022-12-23T07:06:54.927Z,4.87
2022-12-23T07:21:57.047Z,5.05
2022-12-23T07:36:59.066Z,4.90
2022-12-23T07:52:01.024Z,4.69
2022-12-23T08:07:02.985Z,4.69
2022-12-23T08:22:04.947Z,5.07
2022-12-23T08:37:07.267Z,5.21
2022-12-23T08:52:09.228Z,5.40
2022-12-23T09:07:11.184Z,5.59
2022-12-23T09:22:13.943Z,5.77
2022-12-23T09:37:17.113Z,5.82
2022-12-23T09:52:43.787Z,5.95
2022-12-23T10:08:13.208Z,6.15
2022-12-23T10:23:28.659Z,6.33
2022-12-23T10:38:33.409Z,6.36
2022-12-23T10:53:47.071Z,6.45
2022-12-23T11:08:51.188Z,6.46
2022-12-23T11:24:16.690Z,6.48
2022-12-23T11:39:29.167Z,6.54
2022-12-23T11:54:31.811Z,6.53
2022-12-23T12:09:35.089Z,6.53
2022-12-23T12:24:45.125Z,6.45
2022-12-23T12:39:55.242Z,6.45
2022-12-23T12:55:04.209Z,6.50
2022-12-23T13:10:06.125Z,6.54
2022-12-23T13:25:17.850Z,6.54
2022-12-23T13:40:28.954Z,6.57
2022-12-23T13:55:49.811Z,6.53
2022-12-23T14:10:57.855Z,6.50
2022-12-23T14:26:24.307Z,6.62
2022-12-23T14:41:43.718Z,6.50
2022-12-23T14:57:04.596Z,6.53
2022-12-23T15:12:16.367Z,6.48
2022-12-23T15:27:29.459Z,6.52
2022-12-23T15:42:32.230Z,6.59
2022-12-23T15:57:34.430Z,6.57
2022-12-23T16:12:37.295Z,6.57
2022-12-23T16:27:44.168Z,6.45
2022-12-23T16:42:46.150Z,6.10
2022-12-23T16:57:48.109Z,6.00
2022-12-23T17:12:51.140Z,5.80
2022-12-23T17:27:53.949Z,5.60
2022-12-23T17:42:55.966Z,5.39
2022-12-23T17:57:57.987Z,5.25
2022-12-23T18:13:02.902Z,5.09
2022-12-23T18:28:05.338Z,4.97
2022-12-23T18:43:16.227Z,4.86
2022-12-23T18:58:18.586Z,4.81
2022-12-23T19:13:20.870Z,4.77
2022-12-23T19:28:23.287Z,4.76
2022-12-23T19:43:25.255Z,4.84
2022-12-23T19:58:28.976Z,4.93
2022-12-23T20:13:31.068Z,4.98
2022-12-23T20:28:33.887Z,5.08
2022-12-23T20:43:36.417Z,5.18
2022-12-23T20:58:57.682Z,5.19
2022-12-23T21:14:06.883Z,5.21
2022-12-23T21:29:10.747Z,5.29
2022-12-23T21:44:16.268Z,5.36
2022-12-23T21:59:18.269Z,5.28
2022-12-23T22:14:20.248Z,5.38
2022-12-23T22:29:22.205Z,5.46
2022-12-23T22:44:24.257Z,5.49
2022-12-23T22:59:26.605Z,5.49
2022-12-23T23:14:28.607Z,5.45
2022-12-23T23:29:30.692Z,5.39
2022-12-23T23:44:32.628Z,5.40
2022-12-23T23:59:34.547Z,5.40
